createdAt,value
2022-12-05T00:00:18.849Z,91.75
2022-12-05T00:05:42.279Z,91.76
2022-12-05T00:10:45.225Z,91.65
2022-12-05T00:15:48.205Z,91.68
2022-12-05T00:20:51.113Z,91.67
2022-12-05T00:25:54.159Z,91.70
2022-12-05T00:30:57.357Z,91.73
2022-12-05T00:36:11.526Z,91.69
2022-12-05T00:41:19.041Z,91.53
2022-12-05T00:46:28.590Z,91.37
2022-12-05T00:51:38.870Z,91.27
2022-12-05T00:56:43.928Z,91.26
2022-12-05T01:01:50.484Z,91.24
2022-12-05T01:06:58.802Z,91.18
2022-12-05T01:12:02.355Z,91.14
2022-12-05T01:17:05.802Z,91.18
2022-12-05T01:22:09.029Z,91.18
2022-12-05T01:27:12.017Z,91.10
2022-12-05T01:32:15.084Z,91.15
2022-12-05T01:37:18.043Z,91.14
2022-12-05T01:42:26.009Z,90.99
2022-12-05T01:47:32.789Z,91.03
2022-12-05T01:52:36.463Z,91.05
2022-12-05T01:57:40.775Z,91.10
2022-12-05T02:02:51.027Z,91.12
2022-12-05T02:07:54.727Z,91.04
2022-12-05T02:13:29.709Z,90.99
2022-12-05T02:18:44.679Z,91.04
2022-12-05T02:24:42.122Z,91.07
2022-12-05T02:30:06.481Z,91.03
2022-12-05T02:35:28.159Z,90.84
2022-12-05T02:41:00.111Z,90.88
2022-12-05T02:46:11.196Z,90.96
2022-12-05T02:51:21.389Z,90.95
2022-12-05T02:56:26.338Z,90.97
2022-12-05T03:01:32.576Z,90.99
2022-12-05T03:06:51.414Z,91.04
2022-12-05T03:12:07.853Z,91.00
2022-12-05T03:17:18.637Z,91.06
2022-12-05T03:22:43.947Z,90.97
2022-12-05T03:28:02.552Z,90.94
2022-12-05T03:33:15.077Z,90.96
2022-12-05T03:38:33.203Z,91.04
2022-12-05T03:44:15.126Z,91.11
2022-12-05T03:49:38.221Z,91.13
2022-12-05T03:54:57.082Z,90.97
2022-12-05T04:00:04.523Z,90.99
2022-12-05T04:05:16.774Z,91.00
2022-12-05T04:10:31.758Z,91.07
2022-12-05T04:15:54.870Z,91.13
2022-12-05T04:21:21.954Z,91.17
2022-12-05T04:26:31.986Z,91.11
2022-12-05T04:31:44.128Z,91.06
2022-12-05T04:37:02.640Z,91.04
2022-12-05T04:42:11.310Z,91.07
2022-12-05T04:47:17.287Z,91.07
2022-12-05T04:52:22.008Z,91.07
2022-12-05T04:57:50.098Z,91.13
2022-12-05T05:03:12.142Z,91.11
2022-12-05T05:08:22.939Z,91.18
2022-12-05T05:13:25.973Z,91.18
2022-12-05T05:18:29.030Z,91.08
2022-12-05T05:23:31.967Z,91.14
2022-12-05T05:28:34.930Z,91.11
2022-12-05T05:33:38.683Z,91.08
2022-12-05T05:38:46.436Z,91.00
2022-12-05T05:43:50.798Z,90.96
2022-12-05T05:48:54.228Z,91.00
2022-12-05T05:53:58.841Z,90.99
2022-12-05T05:59:04.125Z,91.08
2022-12-05T06:04:07.912Z,91.29
2022-12-05T06:09:11.240Z,91.40
2022-12-05T06:14:14.267Z,91.39
2022-12-05T06:19:17.275Z,91.39
2022-12-05T06:24:20.279Z,91.53
2022-12-05T06:29:26.185Z,91.64
2022-12-05T06:34:32.714Z,91.68
2022-12-05T06:39:35.681Z,91.67
2022-12-05T06:44:38.747Z,91.68
2022-12-05T06:49:41.706Z,91.75
2022-12-05T06:54:44.731Z,91.80
2022-12-05T06:59:47.815Z,91.68
2022-12-05T07:04:50.718Z,91.63
2022-12-05T07:09:54.025Z,91.60
2022-12-05T07:14:56.925Z,91.43
2022-12-05T07:20:00.106Z,91.43
2022-12-05T07:25:04.937Z,91.46
2022-12-05T07:30:08.822Z,91.47
2022-12-05T07:35:11.762Z,91.39
2022-12-05T07:40:15.167Z,91.40
2022-12-05T07:45:18.106Z,91.38
2022-12-05T07:50:21.214Z,91.33
2022-12-05T07:55:24.148Z,91.26
2022-12-05T08:00:27.161Z,91.22
2022-12-05T08:05:30.404Z,91.15
2022-12-05T08:10:35.512Z,91.21
2022-12-05T08:15:38.483Z,91.21
2022-12-05T08:20:41.435Z,91.22
2022-12-05T08:25:45.138Z,91.18
2022-12-05T08:30:48.173Z,91.18
2022-12-05T08:35:51.322Z,91.28
2022-12-05T08:40:54.259Z,91.35
2022-12-05T08:45:58.338Z,91.15
2022-12-05T08:51:11.101Z,91.09
2022-12-05T08:56:14.425Z,91.02
2022-12-05T09:01:22.196Z,91.05
2022-12-05T09:06:26.592Z,91.04
2022-12-05T09:11:34.457Z,90.90
2022-12-05T09:16:39.870Z,90.90
2022-12-05T09:21:44.500Z,90.82
2022-12-05T09:26:47.607Z,90.63
2022-12-05T09:31:52.294Z,90.50
2022-12-05T09:37:10.210Z,90.57
2022-12-05T09:43:09.404Z,90.46
2022-12-05T09:48:20.281Z,90.26
2022-12-05T09:53:32.583Z,90.21
2022-12-05T09:58:53.467Z,90.36
2022-12-05T10:04:39.683Z,90.31
2022-12-05T10:09:57.109Z,90.14
2022-12-05T10:16:01.611Z,90.00
2022-12-05T10:21:25.251Z,89.93
2022-12-05T10:26:35.214Z,89.89
2022-12-05T10:31:41.410Z,89.88
2022-12-05T10:37:16.241Z,89.82
2022-12-05T10:42:29.916Z,89.76
2022-12-05T10:47:34.413Z,89.71
2022-12-05T10:52:37.833Z,89.82
2022-12-05T10:57:40.862Z,89.68
2022-12-05T11:02:44.062Z,89.64
2022-12-05T11:07:49.892Z,89.43
2022-12-05T11:12:56.967Z,89.26
2022-12-05T11:18:29.648Z,89.12
2022-12-05T11:23:32.634Z,89.16
2022-12-05T11:28:38.099Z,89.17
2022-12-05T11:33:41.692Z,89.21
2022-12-05T11:38:45.560Z,89.19
2022-12-05T11:44:31.738Z,89.24
2022-12-05T11:49:49.674Z,89.36
2022-12-05T11:55:43.269Z,89.40
2022-12-05T12:01:25.131Z,89.38
2022-12-05T12:07:12.229Z,89.42
2022-12-05T12:12:39.746Z,89.51
2022-12-05T12:18:23.335Z,89.59
2022-12-05T12:24:37.896Z,89.64
2022-12-05T12:30:08.207Z,89.62
2022-12-05T12:35:17.340Z,89.76
2022-12-05T12:41:14.520Z,89.68
2022-12-05T12:46:55.734Z,89.71
2022-12-05T12:52:13.101Z,89.74
2022-12-05T12:57:31.314Z,89.78
2022-12-05T13:02:57.412Z,89.76
2022-12-05T13:08:23.862Z,89.93
2022-12-05T13:13:36.616Z,89.90
2022-12-05T13:18:39.796Z,89.84
2022-12-05T13:23:50.687Z,89.93
2022-12-05T13:29:04.296Z,89.99
2022-12-05T13:34:48.535Z,90.04
2022-12-05T13:40:15.006Z,89.99
2022-12-05T13:45:20.601Z,89.81
2022-12-05T13:50:56.483Z,89.94
2022-12-05T13:56:04.256Z,89.89
2022-12-05T14:01:30.919Z,89.79
2022-12-05T14:06:38.252Z,89.85
2022-12-05T14:12:13.173Z,89.86
2022-12-05T14:17:16.312Z,90.01
2022-12-05T14:22:37.207Z,89.96
2022-12-05T14:29:06.921Z,89.97
2022-12-05T14:34:25.830Z,90.03
2022-12-05T14:39:52.511Z,90.04
2022-12-05T14:45:01.596Z,90.11
2022-12-05T14:50:45.565Z,90.22
2022-12-05T14:56:19.611Z,90.34
2022-12-05T15:01:43.066Z,90.51
2022-12-05T15:07:08.523Z,90.68
2022-12-05T15:12:21.506Z,90.81
2022-12-05T15:17:36.540Z,91.07
2022-12-05T15:22:40.424Z,91.21
2022-12-05T15:28:04.547Z,91.28
2022-12-05T15:33:13.341Z,91.17
2022-12-05T15:38:28.804Z,91.21
2022-12-05T15:43:37.513Z,91.18
2022-12-05T15:48:40.591Z,91.23
2022-12-05T15:54:01.120Z,91.22
2022-12-05T15:59:21.409Z,91.25
2022-12-05T16:04:47.364Z,91.18
2022-12-05T16:09:50.759Z,91.07
2022-12-05T16:15:01.498Z,91.00
2022-12-05T16:20:19.067Z,90.90
2022-12-05T16:25:45.791Z,90.86
2022-12-05T16:31:00.381Z,90.88
2022-12-05T16:36:13.693Z,90.89
2022-12-05T16:41:17.356Z,90.96
2022-12-05T16:46:27.761Z,90.96
2022-12-05T16:51:42.882Z,90.95
2022-12-05T16:56:46.270Z,90.91
2022-12-05T17:01:49.770Z,90.87
2022-12-05T17:06:53.169Z,90.89
2022-12-05T17:12:08.997Z,90.86
2022-12-05T17:17:15.948Z,90.82
2022-12-05T17:22:18.996Z,90.83
2022-12-05T17:27:21.940Z,90.82
2022-12-05T17:32:24.941Z,90.85
2022-12-05T17:37:27.968Z,90.75
2022-12-05T17:42:30.937Z,90.75
2022-12-05T17:47:34.391Z,90.75
2022-12-05T17:52:37.439Z,90.71
2022-12-05T17:57:40.644Z,90.74
2022-12-05T18:02:45.814Z,90.76
2022-12-05T18:07:49.057Z,90.78
2022-12-05T18:12:52.240Z,90.82
2022-12-05T18:17:55.703Z,90.76
2022-12-05T18:22:59.424Z,90.75
2022-12-05T18:28:02.390Z,90.77
2022-12-05T18:33:05.470Z,90.71
2022-12-05T18:38:11.050Z,90.61
2022-12-05T18:43:14.130Z,90.63
2022-12-05T18:48:38.103Z,90.56
2022-12-05T18:53:41.564Z,90.59
2022-12-05T18:58:44.990Z,90.55
2022-12-05T19:03:48.335Z,90.57
2022-12-05T19:08:55.563Z,90.49
2022-12-05T19:14:04.636Z,90.56
2022-12-05T19:19:12.189Z,90.52
2022-12-05T19:24:19.527Z,90.51
2022-12-05T19:29:22.633Z,90.53
2022-12-05T19:34:26.051Z,90.64
2022-12-05T19:39:30.191Z,90.57
2022-12-05T19:44:33.680Z,90.60
2022-12-05T19:49:36.636Z,90.53
2022-12-05T19:54:39.643Z,90.43
2022-12-05T19:59:42.610Z,90.46
2022-12-05T20:04:46.643Z,90.35
2022-12-05T20:09:49.796Z,90.47
2022-12-05T20:14:52.893Z,90.57
2022-12-05T20:19:55.973Z,90.55
2022-12-05T20:24:59.111Z,90.50
2022-12-05T20:30:02.222Z,90.43
2022-12-05T20:35:05.840Z,90.39
2022-12-05T20:40:09.245Z,90.43
2022-12-05T20:45:12.207Z,90.44
2022-12-05T20:50:15.284Z,90.60
2022-12-05T20:55:18.467Z,90.67
2022-12-05T21:00:21.836Z,90.80
2022-12-05T21:05:24.951Z,90.82
2022-12-05T21:10:28.258Z,90.82
2022-12-05T21:15:31.560Z,90.96
2022-12-05T21:20:40.453Z,91.01
2022-12-05T21:25:45.063Z,91.09
2022-12-05T21:30:48.445Z,91.14
2022-12-05T21:35:55.613Z,91.16
2022-12-05T21:40:58.843Z,91.14
2022-12-05T21:46:02.253Z,91.09
2022-12-05T21:51:07.767Z,91.04
2022-12-05T21:56:15.745Z,91.03
2022-12-05T22:01:28.446Z,91.11
2022-12-05T22:06:34.146Z,91.22
2022-12-05T22:11:37.623Z,91.23
2022-12-05T22:16:40.720Z,91.26
2022-12-05T22:21:43.799Z,91.22
2022-12-05T22:26:46.713Z,91.23
2022-12-05T22:31:49.661Z,91.30
2022-12-05T22:36:52.682Z,91.36
2022-12-05T22:41:58.581Z,91.37
2022-12-05T22:47:01.564Z,91.41
2022-12-05T22:52:04.886Z,91.41
2022-12-05T22:57:07.850Z,91.45
2022-12-05T23:02:10.750Z,91.46
2022-12-05T23:07:13.802Z,91.43
2022-12-05T23:12:16.824Z,91.42
2022-12-05T23:17:19.866Z,91.49
2022-12-05T23:22:22.898Z,91.62
2022-12-05T23:27:25.976Z,91.63
2022-12-05T23:32:28.958Z,91.61
2022-12-05T23:37:31.944Z,91.58
2022-12-05T23:42:35.279Z,91.53
2022-12-05T23:47:38.348Z,91.58
2022-12-05T23:52:41.390Z,91.56
2022-12-05T23:57:44.356Z,91.51
